createdAt,value
2022-12-05T00:01:38.977Z,101402.16
2022-12-05T00:04:09.325Z,101395.44
2022-12-05T00:06:38.405Z,101396.56
2022-12-05T00:09:07.563Z,101405.97
2022-12-05T00:11:38.125Z,101404.38
2022-12-05T00:14:09.578Z,101405.50
2022-12-05T00:16:39.599Z,101409.25
2022-12-05T00:19:09.619Z,101407.66
2022-12-05T00:21:38.377Z,101417.31
2022-12-05T00:24:08.801Z,101421.63
2022-12-05T00:26:37.159Z,101414.34
2022-12-05T00:29:05.451Z,101414.09
2022-12-05T00:31:34.997Z,101414.09
2022-12-05T00:34:04.181Z,101411.91
2022-12-05T00:36:34.439Z,101410.88
2022-12-05T00:39:05.175Z,101410.88
2022-12-05T00:41:33.064Z,101410.88
2022-12-05T00:44:02.300Z,101409.47
2022-12-05T00:46:32.176Z,101410.28
2022-12-05T00:49:02.919Z,101412.16
2022-12-05T00:51:33.137Z,101407.31
2022-12-05T00:54:02.684Z,101407.06
2022-12-05T00:56:32.036Z,101410.03
2022-12-05T00:59:02.297Z,101408.19
2022-12-05T01:01:33.346Z,101404.75
2022-12-05T01:04:06.455Z,101408.19
2022-12-05T01:06:34.587Z,101399.59
2022-12-05T01:09:02.570Z,101401.75
2022-12-05T01:11:31.688Z,101394.81
2022-12-05T01:14:01.115Z,101401.28
2022-12-05T01:16:30.887Z,101393.19
2022-12-05T01:19:00.153Z,101391.56
2022-12-05T01:21:29.649Z,101399.63
2022-12-05T01:23:58.309Z,101398.03
2022-12-05T01:26:26.228Z,101402.34
2022-12-05T01:28:54.482Z,101402.59
2022-12-05T01:31:25.052Z,101405.03
2022-12-05T01:33:53.997Z,101402.09
2022-12-05T01:36:22.708Z,101411.78
2022-12-05T01:38:52.373Z,101410.44
2022-12-05T01:41:22.648Z,101416.38
2022-12-05T01:44:02.864Z,101420.13
2022-12-05T01:46:32.782Z,101413.44
2022-12-05T01:49:04.987Z,101418.00
2022-12-05T01:51:34.993Z,101423.13
2022-12-05T01:54:06.138Z,101423.94
2022-12-05T01:56:34.439Z,101423.88
2022-12-05T01:59:04.139Z,101419.31
2022-12-05T02:01:32.740Z,101420.13
2022-12-05T02:04:01.107Z,101429.56
2022-12-05T02:06:29.579Z,101419.63
2022-12-05T02:08:57.461Z,101424.47
2022-12-05T02:11:30.220Z,101426.91
2022-12-05T02:14:21.363Z,101429.81
2022-12-05T02:16:56.636Z,101434.69
2022-12-05T02:19:51.511Z,101426.84
2022-12-05T02:22:43.965Z,101437.28
2022-12-05T02:25:41.293Z,101430.28
2022-12-05T02:28:31.538Z,101437.06
2022-12-05T02:31:06.768Z,101437.59
2022-12-05T02:33:40.298Z,101436.25
2022-12-05T02:36:12.683Z,101429.78
2022-12-05T02:38:47.407Z,101433.56
2022-12-05T02:41:23.505Z,101428.66
2022-12-05T02:43:56.801Z,101428.66
2022-12-05T02:46:30.198Z,101431.91
2022-12-05T02:49:01.446Z,101428.19
2022-12-05T02:51:34.802Z,101435.16
2022-12-05T02:54:07.196Z,101429.78
2022-12-05T02:56:37.151Z,101424.41
2022-12-05T02:59:05.009Z,101430.34
2022-12-05T03:01:34.659Z,101426.53
2022-12-05T03:04:07.506Z,101430.28
2022-12-05T03:06:40.270Z,101431.09
2022-12-05T03:09:13.534Z,101423.28
2022-12-05T03:11:47.607Z,101438.94
2022-12-05T03:14:23.990Z,101433.78
2022-12-05T03:16:56.198Z,101428.13
2022-12-05T03:19:28.166Z,101435.13
2022-12-05T03:22:02.672Z,101434.56
2022-12-05T03:24:32.436Z,101438.34
2022-12-05T03:27:10.633Z,101427.06
2022-12-05T03:29:47.794Z,101429.47
2022-12-05T03:32:24.099Z,101430.00
2022-12-05T03:35:04.655Z,101431.88
2022-12-05T03:37:43.061Z,101429.19
2022-12-05T03:40:18.722Z,101430.81
2022-12-05T03:42:55.227Z,101432.16
2022-12-05T03:45:30.023Z,101431.66
2022-12-05T03:48:05.542Z,101426.03
2022-12-05T03:50:36.384Z,101434.63
2022-12-05T03:53:19.562Z,101429.53
2022-12-05T03:55:52.283Z,101429.25
2022-12-05T03:58:27.224Z,101424.97
2022-12-05T04:00:58.304Z,101427.66
2022-12-05T04:03:39.558Z,101436.78
2022-12-05T04:06:13.657Z,101428.72
2022-12-05T04:08:45.386Z,101434.63
2022-12-05T04:11:17.484Z,101438.09
2022-12-05T04:13:48.855Z,101432.47
2022-12-05T04:16:39.232Z,101438.94
2022-12-05T04:19:13.265Z,101440.53
2022-12-05T04:21:45.170Z,101442.72
2022-12-05T04:24:35.608Z,101442.22
2022-12-05T04:27:11.798Z,101440.31
2022-12-05T04:29:46.940Z,101443.81
2022-12-05T04:32:15.774Z,101439.53
2022-12-05T04:34:55.341Z,101450.50
2022-12-05T04:37:26.334Z,101447.59
2022-12-05T04:40:00.112Z,101441.38
2022-12-05T04:42:32.046Z,101440.03
2022-12-05T04:45:04.431Z,101445.91
2022-12-05T04:47:36.704Z,101453.41
2022-12-05T04:50:09.828Z,101448.03
2022-12-05T04:52:38.665Z,101447.81
2022-12-05T04:55:10.833Z,101451.28
2022-12-05T04:57:44.794Z,101445.91
2022-12-05T05:00:13.567Z,101450.78
2022-12-05T05:02:46.662Z,101448.63
2022-12-05T05:05:19.556Z,101449.19
2022-12-05T05:07:49.289Z,101454.56
2022-12-05T05:10:23.658Z,101451.09
2022-12-05T05:12:51.566Z,101457.28
2022-12-05T05:15:21.072Z,101456.69
2022-12-05T05:17:48.906Z,101453.72
2022-12-05T05:20:28.208Z,101460.44
2022-12-05T05:22:57.409Z,101447.00
2022-12-05T05:25:26.053Z,101455.06
2022-12-05T05:27:56.281Z,101449.09
2022-12-05T05:30:25.719Z,101453.41
2022-12-05T05:32:54.148Z,101450.50
2022-12-05T05:35:23.672Z,101458.28
2022-12-05T05:37:51.853Z,101459.91
2022-12-05T05:40:20.151Z,101453.72
2022-12-05T05:42:50.750Z,101459.09
2022-12-05T05:45:19.118Z,101462.06
2022-12-05T05:47:49.306Z,101462.06
2022-12-05T05:50:21.512Z,101460.97
2022-12-05T05:52:51.322Z,101459.38
2022-12-05T05:55:19.418Z,101464.75
2022-12-05T05:57:47.512Z,101460.19
2022-12-05T06:00:17.126Z,101458.88
2022-12-05T06:02:45.052Z,101457.75
2022-12-05T06:05:13.198Z,101462.59
2022-12-05T06:07:41.064Z,101470.41
2022-12-05T06:10:11.156Z,101462.34
2022-12-05T06:12:39.132Z,101468.50
2022-12-05T06:15:08.803Z,101466.91
2022-12-05T06:17:36.751Z,101468.50
2022-12-05T06:20:05.436Z,101472.59
2022-12-05T06:22:33.515Z,101474.69
2022-12-05T06:25:01.358Z,101477.66
2022-12-05T06:27:32.994Z,101485.97
2022-12-05T06:30:01.307Z,101482.75
2022-12-05T06:32:30.208Z,101486.78
2022-12-05T06:34:58.095Z,101486.78
2022-12-05T06:37:25.993Z,101486.25
2022-12-05T06:39:54.038Z,101491.16
2022-12-05T06:42:22.470Z,101489.25
2022-12-05T06:44:51.889Z,101498.66
2022-12-05T06:47:19.858Z,101492.72
2022-12-05T06:49:47.667Z,101490.53
2022-12-05T06:52:16.076Z,101487.31
2022-12-05T06:54:43.877Z,101498.06
2022-12-05T06:57:11.855Z,101502.91
2022-12-05T06:59:39.637Z,101489.53
2022-12-05T07:02:09.416Z,101498.13
2022-12-05T07:04:37.302Z,101504.88
2022-12-05T07:07:05.960Z,101506.25
2022-12-05T07:09:48.650Z,101507.06
2022-12-05T07:12:18.619Z,101511.63
2022-12-05T07:14:48.990Z,101508.38
2022-12-05T07:17:19.664Z,101515.41
2022-12-05T07:19:49.790Z,101514.31
2022-12-05T07:22:17.799Z,101507.88
2022-12-05T07:24:46.341Z,101517.56
2022-12-05T07:27:15.113Z,101517.56
2022-12-05T07:29:43.010Z,101523.19
2022-12-05T07:32:11.034Z,101520.78
2022-12-05T07:34:40.312Z,101525.03
2022-12-05T07:37:08.624Z,101530.94
2022-12-05T07:39:36.614Z,101529.28
2022-12-05T07:42:04.662Z,101531.72
2022-12-05T07:44:32.702Z,101538.16
2022-12-05T07:47:00.666Z,101536.75
2022-12-05T07:49:28.915Z,101537.81
2022-12-05T07:51:58.439Z,101543.72
2022-12-05T07:54:26.269Z,101545.84
2022-12-05T07:56:54.156Z,101538.81
2022-12-05T07:59:22.005Z,101547.47
2022-12-05T08:01:50.081Z,101546.41
2022-12-05T08:04:18.071Z,101552.84
2022-12-05T08:06:45.917Z,101554.47
2022-12-05T08:09:15.224Z,101559.22
2022-12-05T08:11:45.940Z,101560.78
2022-12-05T08:14:16.135Z,101566.41
2022-12-05T08:16:44.114Z,101564.00
2022-12-05T08:19:17.094Z,101572.06
2022-12-05T08:21:45.204Z,101566.94
2022-12-05T08:24:13.332Z,101569.84
2022-12-05T08:26:42.931Z,101569.31
2022-12-05T08:29:13.194Z,101581.38
2022-12-05T08:31:43.761Z,101576.25
2022-12-05T08:34:13.641Z,101587.50
2022-12-05T08:36:42.844Z,101590.44
2022-12-05T08:39:15.038Z,101592.78
2022-12-05T08:41:44.404Z,101590.63
2022-12-05T08:44:16.415Z,101592.25
2022-12-05T08:46:45.853Z,101598.69
2022-12-05T08:49:14.231Z,101603.00
2022-12-05T08:51:42.846Z,101604.59
2022-12-05T08:54:11.259Z,101603.31
2022-12-05T08:56:39.656Z,101606.84
2022-12-05T08:59:09.615Z,101605.81
2022-12-05T09:01:39.461Z,101606.38
2022-12-05T09:04:08.548Z,101598.25
2022-12-05T09:06:37.360Z,101609.78
2022-12-05T09:09:08.175Z,101617.59
2022-12-05T09:11:38.153Z,101620.28
2022-12-05T09:14:06.762Z,101616.78
2022-12-05T09:16:39.460Z,101613.88
2022-12-05T09:19:12.111Z,101615.50
2022-12-05T09:21:40.510Z,101608.50
2022-12-05T09:24:08.615Z,101620.88
2022-12-05T09:26:36.442Z,101615.50
2022-12-05T09:29:04.567Z,101615.50
2022-12-05T09:31:32.913Z,101622.97
2022-12-05T09:34:02.470Z,101619.25
2022-12-05T09:36:32.586Z,101623.28
2022-12-05T09:39:02.045Z,101628.66
2022-12-05T09:42:18.115Z,101628.13
2022-12-05T09:44:58.179Z,101619.25
2022-12-05T09:47:36.377Z,101631.34
2022-12-05T09:50:17.520Z,101613.81
2022-12-05T09:52:54.867Z,101619.72
2022-12-05T09:55:22.984Z,101620.78
2022-12-05T09:57:57.531Z,101613.34
2022-12-05T10:00:27.551Z,101620.34
2022-12-05T10:03:05.365Z,101624.09
2022-12-05T10:05:41.815Z,101618.72
2022-12-05T10:08:20.082Z,101616.13
2022-12-05T10:10:58.294Z,101616.66
2022-12-05T10:13:39.265Z,101626.34
2022-12-05T10:16:12.710Z,101622.28
2022-12-05T10:18:44.020Z,101625.53
2022-12-05T10:21:19.679Z,101623.09
2022-12-05T10:23:58.746Z,101629.28
2022-12-05T10:26:30.625Z,101626.91
2022-12-05T10:29:04.337Z,101618.28
2022-12-05T10:31:38.907Z,101629.03
2022-12-05T10:34:16.037Z,101627.41
2022-12-05T10:36:56.015Z,101628.22
2022-12-05T10:39:23.978Z,101625.28
2022-12-05T10:41:52.006Z,101626.09
2022-12-05T10:44:20.569Z,101637.09
2022-12-05T10:46:49.635Z,101625.25
2022-12-05T10:49:17.651Z,101626.53
2022-12-05T10:51:47.995Z,101627.94
2022-12-05T10:54:19.672Z,101632.28
2022-12-05T10:56:50.198Z,101625.34
2022-12-05T10:59:20.599Z,101622.13
2022-12-05T11:01:52.336Z,101623.22
2022-12-05T11:04:26.792Z,101620.97
2022-12-05T11:07:00.416Z,101617.41
2022-12-05T11:09:31.140Z,101623.28
2022-12-05T11:12:07.583Z,101625.66
2022-12-05T11:14:36.865Z,101619.25
2022-12-05T11:17:06.827Z,101622.22
2022-12-05T11:19:36.532Z,101621.50
2022-12-05T11:22:08.032Z,101613.97
2022-12-05T11:24:38.021Z,101611.84
2022-12-05T11:27:22.425Z,101615.03
2022-12-05T11:29:59.642Z,101615.59
2022-12-05T11:32:29.153Z,101622.09
2022-12-05T11:35:04.545Z,101619.97
2022-12-05T11:37:38.993Z,101606.28
2022-12-05T11:40:16.386Z,101624.03
2022-12-05T11:43:03.134Z,101600.59
2022-12-05T11:45:50.549Z,101611.28
2022-12-05T11:48:42.678Z,101605.38
2022-12-05T11:51:24.639Z,101603.84
2022-12-05T11:54:12.331Z,101593.38
2022-12-05T11:56:45.806Z,101607.22
2022-12-05T11:59:36.801Z,101602.66
2022-12-05T12:02:17.785Z,101601.84
2022-12-05T12:04:51.766Z,101600.75
2022-12-05T12:07:30.922Z,101601.84
2022-12-05T12:10:12.193Z,101600.44
2022-12-05T12:12:52.093Z,101608.75
2022-12-05T12:15:38.497Z,101599.59
2022-12-05T12:18:17.465Z,101601.22
2022-12-05T12:20:57.524Z,101604.41
2022-12-05T12:23:43.582Z,101609.72
2022-12-05T12:26:16.447Z,101609.97
2022-12-05T12:28:52.692Z,101611.59
2022-12-05T12:31:44.553Z,101606.47
2022-12-05T12:34:39.206Z,101609.66
2022-12-05T12:37:15.220Z,101602.41
2022-12-05T12:39:52.206Z,101600.00
2022-12-05T12:42:26.653Z,101606.19
2022-12-05T12:45:32.685Z,101602.63
2022-12-05T12:48:14.123Z,101598.84
2022-12-05T12:50:45.652Z,101598.66
2022-12-05T12:53:32.771Z,101595.72
2022-12-05T12:56:11.306Z,101594.72
2022-12-05T12:58:48.589Z,101589.03
2022-12-05T13:01:29.583Z,101592.47
2022-12-05T13:04:02.910Z,101587.09
2022-12-05T13:06:36.909Z,101589.78
2022-12-05T13:09:08.894Z,101588.16
2022-12-05T13:11:40.848Z,101582.25
2022-12-05T13:14:14.910Z,101583.88
2022-12-05T13:16:46.472Z,101579.56
2022-12-05T13:19:30.463Z,101582.72
2022-12-05T13:21:59.760Z,101585.75
2022-12-05T13:24:29.412Z,101584.09
2022-12-05T13:27:01.551Z,101577.88
2022-12-05T13:29:35.602Z,101585.88
2022-12-05T13:32:05.343Z,101592.88
2022-12-05T13:34:47.588Z,101593.94
2022-12-05T13:37:44.560Z,101585.88
2022-12-05T13:40:45.781Z,101593.13
2022-12-05T13:43:18.155Z,101591.53
2022-12-05T13:46:02.246Z,101594.47
2022-12-05T13:48:34.052Z,101602.06
2022-12-05T13:51:07.829Z,101602.06
2022-12-05T13:53:40.127Z,101596.69
2022-12-05T13:56:24.900Z,101603.13
2022-12-05T13:58:54.298Z,101607.38
2022-12-05T14:01:56.015Z,101597.06
2022-12-05T14:04:50.359Z,101602.28
2022-12-05T14:11:21.263Z,101605.16
2022-12-05T14:13:50.049Z,101608.09
2022-12-05T14:16:50.447Z,101608.78
2022-12-05T14:19:54.462Z,101612.22
2022-12-05T14:22:35.445Z,101613.03
2022-12-05T14:25:12.275Z,101615.47
2022-12-05T14:27:55.777Z,101614.34
2022-12-05T14:30:26.847Z,101614.34
2022-12-05T14:32:55.829Z,101616.47
2022-12-05T14:35:30.693Z,101623.94
2022-12-05T14:38:02.493Z,101623.38
2022-12-05T14:40:33.502Z,101625.50
2022-12-05T14:43:04.382Z,101625.97
2022-12-05T14:45:36.820Z,101620.06
2022-12-05T14:48:07.620Z,101620.88
2022-12-05T14:50:41.782Z,101628.13
2022-12-05T14:53:24.388Z,101621.69
2022-12-05T14:55:56.213Z,101623.06
2022-12-05T14:58:35.255Z,101627.03
2022-12-05T15:01:07.205Z,101626.25
2022-12-05T15:03:39.587Z,101630.78
2022-12-05T15:06:15.843Z,101632.38
2022-12-05T15:08:48.855Z,101626.41
2022-12-05T15:11:28.375Z,101632.28
2022-12-05T15:14:01.073Z,101632.75
2022-12-05T15:16:30.408Z,101640.25
2022-12-05T15:19:03.251Z,101631.63
2022-12-05T15:21:37.456Z,101642.38
2022-12-05T15:24:12.344Z,101631.88
2022-12-05T15:26:47.595Z,101638.28
2022-12-05T15:29:18.786Z,101638.78
2022-12-05T15:31:48.483Z,101636.34
2022-12-05T15:34:20.133Z,101637.41
2022-12-05T15:36:53.085Z,101643.84
2022-12-05T15:39:25.922Z,101652.94
2022-12-05T15:41:55.035Z,101649.22
2022-12-05T15:44:27.710Z,101647.56
2022-12-05T15:46:57.989Z,101655.06
2022-12-05T15:49:27.956Z,101654.00
2022-12-05T15:52:04.814Z,101652.94
2022-12-05T15:54:35.170Z,101652.47
2022-12-05T15:57:09.278Z,101656.75
2022-12-05T15:59:42.144Z,101655.69
2022-12-05T16:02:16.487Z,101661.06
2022-12-05T16:04:50.157Z,101654.06
2022-12-05T16:07:20.970Z,101664.00
2022-12-05T16:09:49.044Z,101657.81
2022-12-05T16:12:23.020Z,101663.44
2022-12-05T16:15:01.216Z,101667.41
2022-12-05T16:17:37.810Z,101665.78
2022-12-05T16:20:24.877Z,101665.69
2022-12-05T16:22:55.902Z,101674.34
2022-12-05T16:25:26.105Z,101665.94
2022-12-05T16:28:02.945Z,101677.72
2022-12-05T16:30:31.765Z,101674.25
2022-12-05T16:33:05.536Z,101668.06
2022-12-05T16:35:36.995Z,101676.09
2022-12-05T16:38:16.216Z,101669.38
2022-12-05T16:41:03.494Z,101674.75
2022-12-05T16:43:44.675Z,101673.09
2022-12-05T16:46:44.197Z,101677.31
2022-12-05T16:49:21.532Z,101669.28
2022-12-05T16:51:56.647Z,101669.84
2022-12-05T16:54:26.558Z,101669.38
2022-12-05T16:56:54.867Z,101673.44
2022-12-05T16:59:25.614Z,101674.25
2022-12-05T17:01:53.966Z,101674.25
2022-12-05T17:04:22.199Z,101673.75
2022-12-05T17:06:50.482Z,101680.75
2022-12-05T17:09:18.547Z,101675.41
2022-12-05T17:11:50.513Z,101666.75
2022-12-05T17:14:19.824Z,101670.75
2022-12-05T17:16:48.145Z,101670.75
2022-12-05T17:19:16.140Z,101679.59
2022-12-05T17:21:44.759Z,101676.91
2022-12-05T17:24:17.652Z,101684.41
2022-12-05T17:26:47.639Z,101676.34
2022-12-05T17:29:15.582Z,101681.13
2022-12-05T17:31:43.507Z,101684.88
2022-12-05T17:34:17.247Z,101680.56
2022-12-05T17:36:46.198Z,101680.56
2022-12-05T17:39:14.214Z,101672.53
2022-12-05T17:41:42.065Z,101675.22
2022-12-05T17:44:14.991Z,101676.81
2022-12-05T17:46:44.509Z,101679.25
2022-12-05T17:49:15.129Z,101674.75
2022-12-05T17:52:05.489Z,101683.81
2022-12-05T17:54:31.744Z,101687.56
2022-12-05T17:56:59.785Z,101682.78
2022-12-05T17:59:29.497Z,101677.16
2022-12-05T18:01:57.722Z,101679.59
2022-12-05T18:04:25.587Z,101684.47
2022-12-05T18:06:53.406Z,101681.78
2022-12-05T18:09:21.521Z,101673.75
2022-12-05T18:11:49.460Z,101680.75
2022-12-05T18:14:17.593Z,101684.47
2022-12-05T18:16:47.002Z,101683.34
2022-12-05T18:19:14.977Z,101697.81
2022-12-05T18:21:43.111Z,101692.13
2022-12-05T18:24:12.381Z,101699.59
2022-12-05T18:26:40.340Z,101698.78
2022-12-05T18:29:08.563Z,101712.75
2022-12-05T18:31:38.450Z,101704.47
2022-12-05T18:34:07.780Z,101702.84
2022-12-05T18:36:36.028Z,101697.97
2022-12-05T18:39:04.140Z,101697.16
2022-12-05T18:41:32.269Z,101704.16
2022-12-05T18:44:00.393Z,101705.53
2022-12-05T18:46:28.480Z,101704.47
2022-12-05T18:49:01.728Z,101700.97
2022-12-05T18:51:33.083Z,101703.19
2022-12-05T18:54:01.292Z,101702.13
2022-12-05T18:56:31.900Z,101697.31
2022-12-05T18:59:02.653Z,101697.31
2022-12-05T19:01:32.465Z,101705.94
2022-12-05T19:04:02.335Z,101700.09
2022-12-05T19:06:33.347Z,101710.34
2022-12-05T19:09:04.387Z,101709.88
2022-12-05T19:11:33.856Z,101716.03
2022-12-05T19:14:03.858Z,101717.09
2022-12-05T19:16:34.203Z,101719.78
2022-12-05T19:19:04.475Z,101724.34
2022-12-05T19:21:34.812Z,101729.72
2022-12-05T19:24:04.763Z,101729.13
2022-12-05T19:26:32.956Z,101733.66
2022-12-05T19:29:02.069Z,101737.16
2022-12-05T19:31:30.714Z,101743.34
2022-12-05T19:34:02.274Z,101733.91
2022-12-05T19:36:31.711Z,101741.16
2022-12-05T19:39:02.140Z,101737.66
2022-12-05T19:41:31.371Z,101737.31
2022-12-05T19:44:00.539Z,101732.19
2022-12-05T19:46:30.261Z,101737.56
2022-12-05T19:48:59.654Z,101734.88
2022-12-05T19:51:28.246Z,101734.88
2022-12-05T19:53:56.206Z,101732.19
2022-12-05T19:56:27.682Z,101738.63
2022-12-05T19:58:57.517Z,101730.56
2022-12-05T20:01:28.376Z,101727.41
2022-12-05T20:03:57.918Z,101728.81
2022-12-05T20:06:26.630Z,101722.69
2022-12-05T20:08:54.666Z,101721.41
2022-12-05T20:11:26.512Z,101722.69
2022-12-05T20:13:58.133Z,101730.19
2022-12-05T20:16:27.676Z,101731.00
2022-12-05T20:18:58.933Z,101724.81
2022-12-05T20:21:28.910Z,101728.56
2022-12-05T20:23:59.608Z,101727.50
2022-12-05T20:26:30.613Z,101727.75
2022-12-05T20:28:59.614Z,101731.00
2022-12-05T20:31:29.572Z,101724.81
2022-12-05T20:33:57.720Z,101729.13
2022-12-05T20:36:27.698Z,101730.53
2022-12-05T20:38:57.356Z,101727.59
2022-12-05T20:41:25.820Z,101725.72
2022-12-05T20:43:57.346Z,101722.22
2022-12-05T20:46:25.564Z,101722.22
2022-12-05T20:48:54.304Z,101722.78
2022-12-05T20:51:24.242Z,101718.47
2022-12-05T20:53:52.781Z,101723.28
2022-12-05T20:56:22.548Z,101722.47
2022-12-05T20:58:52.307Z,101716.03
2022-12-05T21:01:22.861Z,101717.41
2022-12-05T21:03:52.960Z,101721.72
2022-12-05T21:06:25.827Z,101714.28
2022-12-05T21:08:54.337Z,101707.25
2022-12-05T21:11:22.600Z,101709.72
2022-12-05T21:13:50.580Z,101709.47
2022-12-05T21:16:20.144Z,101707.59
2022-12-05T21:18:51.057Z,101709.47
2022-12-05T21:21:21.046Z,101703.28
2022-12-05T21:23:53.323Z,101708.66
2022-12-05T21:26:22.106Z,101709.72
2022-12-05T21:28:50.337Z,101707.25
2022-12-05T21:31:20.186Z,101704.00
2022-12-05T21:33:51.854Z,101706.69
2022-12-05T21:36:20.800Z,101701.88
2022-12-05T21:38:55.449Z,101704.56
2022-12-05T21:41:24.100Z,101699.19
2022-12-05T21:43:54.906Z,101693.34
2022-12-05T21:46:24.202Z,101697.09
2022-12-05T21:48:53.973Z,101691.97
2022-12-05T21:51:22.880Z,101693.28
2022-12-05T21:53:51.456Z,101704.56
2022-12-05T21:56:22.948Z,101698.16
2022-12-05T21:58:51.080Z,101703.53
2022-12-05T22:01:20.699Z,101698.97
2022-12-05T22:03:54.147Z,101694.41
2022-12-05T22:06:23.575Z,101694.41
2022-12-05T22:08:51.526Z,101696.03
2022-12-05T22:11:21.045Z,101700.09
2022-12-05T22:13:50.112Z,101702.47
2022-12-05T22:16:19.565Z,101697.25
2022-12-05T22:18:48.315Z,101709.38
2022-12-05T22:21:18.401Z,101705.63
2022-12-05T22:23:48.254Z,101708.91
2022-12-05T22:26:18.255Z,101704.34
2022-12-05T22:28:46.782Z,101710.53
2022-12-05T22:31:16.725Z,101708.06
2022-12-05T22:33:45.934Z,101712.63
2022-12-05T22:36:16.628Z,101708.91
2022-12-05T22:38:48.465Z,101717.97
2022-12-05T22:41:18.484Z,101704.00
2022-12-05T22:43:48.179Z,101704.00
2022-12-05T22:46:18.944Z,101700.25
2022-12-05T22:48:47.205Z,101709.94
2022-12-05T22:51:16.081Z,101697.00
2022-12-05T22:53:44.015Z,101693.97
2022-12-05T22:56:15.585Z,101695.84
2022-12-05T22:58:44.425Z,101695.03
2022-12-05T23:01:14.616Z,101694.81
2022-12-05T23:03:43.478Z,101695.63
2022-12-05T23:06:12.805Z,101693.78
2022-12-05T23:08:41.323Z,101691.66
2022-12-05T23:11:10.317Z,101684.75
2022-12-05T23:13:40.415Z,101683.19
2022-12-05T23:16:10.301Z,101682.72
2022-12-05T23:18:47.894Z,101679.44
2022-12-05T23:21:18.074Z,101683.44
2022-12-05T23:23:46.565Z,101690.69
2022-12-05T23:26:15.407Z,101688.56
2022-12-05T23:28:44.939Z,101685.41
2022-12-05T23:31:13.658Z,101683.28
2022-12-05T23:33:41.967Z,101680.59
2022-12-05T23:36:10.909Z,101684.34
2022-12-05T23:38:39.851Z,101683.53
2022-12-05T23:41:09.644Z,101681.06
2022-12-05T23:43:38.219Z,101677.81
2022-12-05T23:46:08.142Z,101686.94
2022-12-05T23:48:36.506Z,101686.44
2022-12-05T23:51:07.166Z,101689.13
2022-12-05T23:53:37.393Z,101681.66
2022-12-05T23:56:08.356Z,101685.97
2022-12-05T23:58:37.056Z,101681.72
